createdAt,value
2017-09-26T00:02:26.803Z,14.60
2017-09-26T00:04:54.384Z,14.60
2017-09-26T00:07:22.190Z,15.03
2017-09-26T00:09:49.782Z,14.47
2017-09-26T00:12:18.153Z,14.40
2017-09-26T00:14:46.498Z,13.10
2017-09-26T00:17:14.383Z,14.30
2017-09-26T00:19:42.755Z,14.03
2017-09-26T00:22:11.114Z,14.23
2017-09-26T00:24:38.819Z,15.17
2017-09-26T00:27:07.152Z,14.90
2017-09-26T00:29:34.754Z,16.17
2017-09-26T00:32:03.101Z,15.90
2017-09-26T00:34:30.960Z,15.53
2017-09-26T00:36:58.556Z,14.43
2017-09-26T00:39:27.512Z,16.07
2017-09-26T00:41:55.108Z,15.67
2017-09-26T00:44:23.441Z,15.90
2017-09-26T00:46:51.000Z,16.50
2017-09-26T00:49:18.548Z,15.20
2017-09-26T00:51:46.394Z,16.53
2017-09-26T00:54:13.933Z,15.60
2017-09-26T00:56:42.261Z,17.10
2017-09-26T00:59:09.844Z,15.53
2017-09-26T01:01:37.403Z,14.87
2017-09-26T01:04:17.296Z,14.50
2017-09-26T01:06:54.744Z,15.90
2017-09-26T01:09:22.300Z,15.80
2017-09-26T01:11:49.835Z,15.30
2017-09-26T01:14:17.664Z,15.83
2017-09-26T01:16:45.242Z,16.10
2017-09-26T01:19:12.797Z,16.17
2017-09-26T01:21:40.393Z,15.70
2017-09-26T01:24:07.964Z,13.70
2017-09-26T01:26:35.554Z,15.20
2017-09-26T01:29:03.230Z,15.17
2017-09-26T01:31:31.117Z,15.13
2017-09-26T01:33:58.698Z,14.90
2017-09-26T01:36:26.304Z,15.17
2017-09-26T01:38:54.044Z,14.50
2017-09-26T01:41:21.630Z,16.57
2017-09-26T01:43:49.245Z,15.00
2017-09-26T01:46:16.883Z,16.00
2017-09-26T01:48:44.763Z,15.27
2017-09-26T01:51:12.354Z,15.13
2017-09-26T01:53:40.789Z,15.07
2017-09-26T01:56:11.077Z,15.00
2017-09-26T01:58:39.530Z,15.40
2017-09-26T02:01:07.927Z,15.47
2017-09-26T02:03:35.740Z,15.53
2017-09-26T02:06:03.690Z,14.73
2017-09-26T02:08:31.285Z,14.70
2017-09-26T02:10:58.938Z,15.70
2017-09-26T02:13:26.562Z,15.90
2017-09-26T02:15:54.171Z,15.97
2017-09-26T02:18:21.771Z,14.30
2017-09-26T02:20:49.383Z,14.83
2017-09-26T02:23:17.354Z,15.80
2017-09-26T02:25:44.963Z,14.83
2017-09-26T02:28:12.934Z,16.40
2017-09-26T02:30:40.555Z,16.13
2017-09-26T02:33:08.139Z,16.60
2017-09-26T02:35:35.744Z,17.40
2017-09-26T02:38:03.331Z,16.63
2017-09-26T02:40:31.990Z,15.90
2017-09-26T02:42:59.614Z,14.17
2017-09-26T02:45:27.436Z,15.87
2017-09-26T02:47:55.068Z,16.20
2017-09-26T02:50:22.668Z,15.70
2017-09-26T02:52:51.076Z,15.20
2017-09-26T02:55:18.671Z,16.30
2017-09-26T02:57:46.558Z,15.17
2017-09-26T03:00:14.210Z,14.70
2017-09-26T03:02:43.222Z,15.50
2017-09-26T03:05:10.843Z,15.80
2017-09-26T03:07:38.503Z,15.27
2017-09-26T03:10:06.115Z,15.23
2017-09-26T03:12:34.446Z,15.23
2017-09-26T03:15:02.351Z,14.73
2017-09-26T03:17:29.991Z,14.87
2017-09-26T03:19:57.582Z,14.80
2017-09-26T03:22:25.991Z,15.20
2017-09-26T03:24:53.608Z,16.47
2017-09-26T03:27:21.419Z,15.63
2017-09-26T03:29:49.048Z,15.40
2017-09-26T03:32:17.694Z,16.50
2017-09-26T03:34:45.287Z,16.43
2017-09-26T03:37:13.648Z,15.90
2017-09-26T03:39:41.522Z,14.70
2017-09-26T03:42:09.124Z,15.20
2017-09-26T03:44:36.900Z,14.83
2017-09-26T03:47:04.508Z,15.73
2017-09-26T03:49:32.447Z,14.93
2017-09-26T03:52:00.798Z,15.77
2017-09-26T03:54:28.462Z,16.60
2017-09-26T03:56:56.087Z,15.13
2017-09-26T03:59:24.089Z,15.30
2017-09-26T04:01:51.702Z,16.60
2017-09-26T04:04:19.330Z,16.07
2017-09-26T04:06:47.206Z,17.77
2017-09-26T04:09:14.789Z,16.93
2017-09-26T04:11:42.519Z,16.97
2017-09-26T04:14:10.106Z,15.80
2017-09-26T04:16:37.691Z,15.27
2017-09-26T04:19:06.508Z,15.83
2017-09-26T04:21:34.903Z,14.63
2017-09-26T04:24:02.508Z,15.77
2017-09-26T04:26:30.930Z,17.67
2017-09-26T04:28:58.535Z,16.03
2017-09-26T04:31:26.119Z,16.93
2017-09-26T04:33:54.546Z,16.30
2017-09-26T04:36:22.858Z,15.47
2017-09-26T04:38:50.469Z,16.97
2017-09-26T04:41:18.076Z,16.37
2017-09-26T04:43:45.766Z,15.93
2017-09-26T04:46:13.406Z,16.40
2017-09-26T04:48:41.058Z,15.73
2017-09-26T04:51:08.895Z,16.40
2017-09-26T04:53:36.746Z,16.20
2017-09-26T04:56:04.329Z,16.60
2017-09-26T04:58:32.093Z,14.30
2017-09-26T05:01:00.460Z,14.90
2017-09-26T05:03:28.050Z,16.33
2017-09-26T05:05:55.790Z,15.53
2017-09-26T05:08:23.467Z,16.50
2017-09-26T05:10:52.262Z,16.50
2017-09-26T05:13:19.956Z,15.13
2017-09-26T05:15:47.601Z,15.50
2017-09-26T05:18:16.308Z,16.47
2017-09-26T05:20:43.939Z,16.17
2017-09-26T05:23:12.370Z,16.17
2017-09-26T05:25:40.020Z,16.60
2017-09-26T05:28:07.631Z,15.83
2017-09-26T05:30:35.646Z,16.17
2017-09-26T05:33:03.392Z,15.93
2017-09-26T05:35:31.011Z,18.40
2017-09-26T05:37:58.637Z,15.43
2017-09-26T05:40:26.235Z,16.73
2017-09-26T05:42:54.313Z,16.63
2017-09-26T05:45:21.923Z,16.73
2017-09-26T05:47:49.811Z,17.97
2017-09-26T05:50:17.423Z,15.60
2017-09-26T05:52:45.786Z,18.07
2017-09-26T05:55:13.394Z,15.47
2017-09-26T05:57:41.025Z,18.20
2017-09-26T06:00:09.446Z,18.70
2017-09-26T06:02:37.062Z,17.40
2017-09-26T06:05:06.195Z,17.43
2017-09-26T06:07:33.839Z,18.97
2017-09-26T06:10:01.839Z,18.67
2017-09-26T06:12:29.426Z,19.40
2017-09-26T06:14:57.042Z,18.80
2017-09-26T06:17:25.227Z,20.30
2017-09-26T06:19:52.802Z,16.77
2017-09-26T06:22:20.395Z,17.17
2017-09-26T06:24:48.766Z,15.80
2017-09-26T06:27:16.489Z,14.80
2017-09-26T06:29:44.067Z,16.67
2017-09-26T06:32:12.026Z,15.40
2017-09-26T06:34:39.620Z,13.70
2017-09-26T06:37:07.981Z,12.93
2017-09-26T06:39:35.604Z,12.97
2017-09-26T06:42:03.198Z,11.40
2017-09-26T06:44:30.810Z,10.60
2017-09-26T06:46:58.397Z,10.40
2017-09-26T06:49:26.302Z,11.40
2017-09-26T06:51:54.659Z,11.03
2017-09-26T06:54:22.994Z,12.53
2017-09-26T06:56:50.587Z,10.80
2017-09-26T06:59:18.173Z,12.53
2017-09-26T07:01:46.225Z,12.57
2017-09-26T07:04:13.866Z,14.73
2017-09-26T07:06:41.470Z,15.37
2017-09-26T07:09:09.074Z,15.20
2017-09-26T07:11:36.676Z,16.33
2017-09-26T07:14:04.266Z,15.90
2017-09-26T07:16:32.626Z,14.87
2017-09-26T07:19:00.224Z,15.07
2017-09-26T07:21:27.849Z,15.63
2017-09-26T07:23:56.503Z,17.90
2017-09-26T07:26:24.092Z,15.70
2017-09-26T07:28:51.683Z,16.40
2017-09-26T07:31:19.310Z,14.30
2017-09-26T07:33:46.890Z,16.60
2017-09-26T07:36:15.246Z,16.13
2017-09-26T07:38:42.841Z,14.80
2017-09-26T07:41:10.437Z,16.60
2017-09-26T07:43:38.026Z,14.23
2017-09-26T07:46:06.413Z,14.17
2017-09-26T07:48:34.793Z,15.60
2017-09-26T07:51:02.718Z,14.63
2017-09-26T07:53:30.694Z,14.73
2017-09-26T07:55:58.507Z,14.07
2017-09-26T07:58:26.866Z,15.73
2017-09-26T08:00:54.766Z,15.23
2017-09-26T08:03:22.697Z,16.43
2017-09-26T08:05:51.386Z,14.40
2017-09-26T08:08:20.453Z,17.10
2017-09-26T08:10:48.093Z,15.77
2017-09-26T08:13:15.683Z,14.17
2017-09-26T08:15:44.116Z,16.73
2017-09-26T08:18:11.816Z,15.43
2017-09-26T08:20:39.495Z,16.50
2017-09-26T08:23:07.144Z,15.67
2017-09-26T08:25:34.866Z,16.67
2017-09-26T08:28:03.420Z,15.67
2017-09-26T08:30:32.071Z,14.80
2017-09-26T08:32:59.675Z,16.17
2017-09-26T08:35:27.318Z,15.00
2017-09-26T08:37:55.704Z,14.63
2017-09-26T08:40:24.096Z,13.53
2017-09-26T08:42:51.983Z,14.10
2017-09-26T08:45:19.572Z,13.27
2017-09-26T08:47:47.466Z,12.80
2017-09-26T08:50:15.841Z,13.13
2017-09-26T08:55:38.856Z,13.97
2017-09-26T08:58:07.018Z,12.00
2017-09-26T09:00:34.654Z,13.47
2017-09-26T09:03:03.006Z,11.30
2017-09-26T09:05:33.154Z,10.63
2017-09-26T09:08:00.730Z,12.77
2017-09-26T09:13:03.014Z,12.10
2017-09-26T09:15:31.384Z,9.30
2017-09-26T09:17:58.978Z,9.75
2017-09-26T09:20:28.388Z,11.32
2017-09-26T09:22:55.990Z,10.73
2017-09-26T09:25:23.598Z,11.32
2017-09-26T09:27:51.214Z,11.43
2017-09-26T09:30:18.839Z,10.95
2017-09-26T09:32:46.474Z,10.23
2017-09-26T09:35:14.081Z,9.43
2017-09-26T09:37:42.050Z,11.12
2017-09-26T09:40:09.667Z,9.98
2017-09-26T09:55:28.614Z,10.53
2017-09-26T09:57:56.279Z,8.33
2017-09-26T10:00:24.245Z,9.50
2017-09-26T10:02:51.863Z,10.07
2017-09-26T10:05:20.382Z,9.77
2017-09-26T10:07:47.988Z,10.57
2017-09-26T10:10:15.557Z,8.55
2017-09-26T10:12:43.464Z,8.02
2017-09-26T10:15:11.089Z,9.57
2017-09-26T10:17:38.684Z,8.95
2017-09-26T10:20:06.298Z,11.23
2017-09-26T10:22:34.349Z,8.30
2017-09-26T10:25:02.050Z,10.02
2017-09-26T10:27:30.424Z,10.45
2017-09-26T10:29:58.860Z,10.90
2017-09-26T10:32:26.481Z,10.70
2017-09-26T10:34:54.171Z,10.07
2017-09-26T10:37:21.741Z,9.95
2017-09-26T10:39:49.402Z,10.40
2017-09-26T10:42:16.990Z,9.60
2017-09-26T10:44:45.050Z,9.30
2017-09-26T10:47:12.636Z,9.55
2017-09-26T10:49:40.234Z,10.05
2017-09-26T10:52:07.829Z,8.57
2017-09-26T10:54:35.415Z,7.55
2017-09-26T10:57:03.870Z,8.43
2017-09-26T10:59:31.466Z,8.32
2017-09-26T11:01:59.062Z,8.25
2017-09-26T11:04:27.580Z,8.48
2017-09-26T11:06:55.263Z,8.10
2017-09-26T11:09:22.954Z,7.97
2017-09-26T11:11:50.564Z,7.20
2017-09-26T11:14:18.424Z,8.20
2017-09-26T11:16:46.007Z,8.07
2017-09-26T11:19:14.530Z,7.55
2017-09-26T11:21:42.155Z,7.00
2017-09-26T11:24:09.786Z,8.43
2017-09-26T11:26:37.374Z,6.95
2017-09-26T11:29:05.237Z,6.95
2017-09-26T11:31:33.143Z,4.40
2017-09-26T11:34:00.743Z,4.75
2017-09-26T11:36:28.329Z,4.70
2017-09-26T11:38:56.026Z,3.85
2017-09-26T11:41:23.652Z,4.40
2017-09-26T11:43:51.299Z,4.40
2017-09-26T11:46:19.692Z,5.70
2017-09-26T11:48:47.320Z,5.00
2017-09-26T11:51:14.914Z,4.47
2017-09-26T11:53:42.848Z,5.20
2017-09-26T11:56:10.469Z,4.90
2017-09-26T11:58:38.080Z,4.50
2017-09-26T12:01:05.691Z,4.93
2017-09-26T12:03:33.370Z,5.80
2017-09-26T12:06:00.974Z,5.30
2017-09-26T12:08:29.335Z,5.10
2017-09-26T12:10:57.502Z,5.20
2017-09-26T12:13:30.759Z,5.90
2017-09-26T12:15:59.162Z,4.90
2017-09-26T12:18:27.183Z,5.60
2017-09-26T12:20:54.837Z,5.03
2017-09-26T12:23:23.225Z,6.10
2017-09-26T12:25:50.809Z,7.07
2017-09-26T12:28:18.407Z,5.57
2017-09-26T12:30:45.998Z,5.87
2017-09-26T12:33:13.915Z,5.80
2017-09-26T12:35:42.420Z,5.80
2017-09-26T12:38:10.820Z,5.80
2017-09-26T12:40:38.909Z,6.23
2017-09-26T12:43:06.483Z,6.27
2017-09-26T12:45:34.091Z,6.20
2017-09-26T12:48:01.671Z,5.57
2017-09-26T12:50:30.593Z,6.27
2017-09-26T12:52:58.178Z,4.80
2017-09-26T12:55:25.807Z,5.00
2017-09-26T12:57:53.406Z,5.63
2017-09-26T13:00:21.003Z,5.40
2017-09-26T13:02:49.502Z,5.87
2017-09-26T13:05:17.081Z,5.83
2017-09-26T13:07:44.993Z,4.90
2017-09-26T13:10:12.881Z,5.50
2017-09-26T13:12:41.267Z,5.93
2017-09-26T13:15:08.871Z,5.77
2017-09-26T13:17:36.487Z,6.60
2017-09-26T13:20:04.160Z,5.70
2017-09-26T13:22:31.746Z,5.70
2017-09-26T13:24:59.612Z,5.80
2017-09-26T13:27:27.735Z,6.00
2017-09-26T13:29:56.106Z,5.23
2017-09-26T13:32:24.687Z,4.90
2017-09-26T13:34:53.129Z,5.03
2017-09-26T13:37:20.734Z,5.13
2017-09-26T13:39:48.335Z,5.73
2017-09-26T13:42:16.199Z,6.00
2017-09-26T13:44:43.840Z,7.43
2017-09-26T13:47:11.441Z,5.47
2017-09-26T13:49:39.042Z,6.10
2017-09-26T13:52:07.376Z,6.07
2017-09-26T13:54:35.467Z,5.47
2017-09-26T13:57:03.166Z,5.03
2017-09-26T13:59:31.087Z,6.50
2017-09-26T14:01:59.434Z,5.70
2017-09-26T14:04:27.043Z,5.07
2017-09-26T14:06:54.623Z,4.67
2017-09-26T14:09:22.218Z,4.90
2017-09-26T14:11:49.845Z,4.67
2017-09-26T14:14:17.438Z,5.97
2017-09-26T14:16:45.124Z,4.50
2017-09-26T14:19:12.761Z,4.93
2017-09-26T14:21:40.354Z,4.40
2017-09-26T14:24:08.310Z,5.23
2017-09-26T14:26:35.901Z,4.70
2017-09-26T14:29:04.302Z,5.10
2017-09-26T14:31:31.920Z,5.03
2017-09-26T14:33:59.519Z,6.10
2017-09-26T14:36:27.870Z,5.53
2017-09-26T14:38:56.278Z,5.60
2017-09-26T14:41:23.878Z,4.93
2017-09-26T14:43:51.488Z,5.83
2017-09-26T14:46:19.852Z,5.57
2017-09-26T14:48:48.285Z,5.73
2017-09-26T14:51:16.165Z,5.20
2017-09-26T14:53:44.182Z,5.33
2017-09-26T14:56:14.787Z,4.90
2017-09-26T14:58:43.679Z,5.80
2017-09-26T15:01:11.354Z,7.13
2017-09-26T15:03:39.691Z,5.63
2017-09-26T15:06:07.654Z,6.50
2017-09-26T15:08:35.255Z,6.00
2017-09-26T15:11:03.692Z,5.27
2017-09-26T15:13:31.304Z,5.80
2017-09-26T15:15:59.762Z,5.90
2017-09-26T15:18:29.035Z,6.30
2017-09-26T15:20:56.652Z,6.03
2017-09-26T15:23:25.016Z,5.40
2017-09-26T15:25:53.398Z,5.40
2017-09-26T15:28:22.039Z,6.33
2017-09-26T15:30:49.697Z,6.00
2017-09-26T15:33:17.306Z,6.47
2017-09-26T15:35:44.920Z,6.00
2017-09-26T15:38:12.691Z,5.33
2017-09-26T15:40:40.332Z,5.40
2017-09-26T15:43:07.910Z,5.20
2017-09-26T15:45:35.955Z,5.87
2017-09-26T15:48:03.642Z,5.27
2017-09-26T15:50:31.243Z,5.87
2017-09-26T15:52:58.874Z,5.00
2017-09-26T15:55:26.493Z,5.83
2017-09-26T15:57:54.394Z,5.20
2017-09-26T16:00:21.999Z,6.00
2017-09-26T16:02:49.631Z,5.67
2017-09-26T16:05:17.256Z,6.10
2017-09-26T16:07:44.859Z,5.83
2017-09-26T16:10:12.494Z,6.47
2017-09-26T16:12:40.099Z,5.27
2017-09-26T16:15:08.032Z,6.73
2017-09-26T16:17:35.684Z,6.70
2017-09-26T16:20:03.292Z,6.50
2017-09-26T16:22:30.897Z,7.23
2017-09-26T16:24:58.484Z,7.13
2017-09-26T16:27:26.105Z,7.97
2017-09-26T16:29:53.713Z,8.27
2017-09-26T16:32:22.572Z,8.47
2017-09-26T16:34:50.156Z,8.10
2017-09-26T16:37:17.790Z,8.83
2017-09-26T16:39:45.425Z,8.27
2017-09-26T16:42:13.038Z,8.40
2017-09-26T16:44:40.676Z,8.20
2017-09-26T16:47:08.328Z,8.10
2017-09-26T16:49:36.222Z,8.03
2017-09-26T16:52:03.828Z,8.37
2017-09-26T16:54:31.443Z,7.73
2017-09-26T16:56:59.088Z,8.50
2017-09-26T16:59:26.785Z,8.07
2017-09-26T17:01:55.184Z,9.17
2017-09-26T17:04:22.779Z,9.17
2017-09-26T17:06:50.669Z,19.67
2017-09-26T17:09:18.347Z,11.07
2017-09-26T17:11:46.730Z,12.20
2017-09-26T17:14:15.128Z,11.93
2017-09-26T17:16:42.788Z,11.27
2017-09-26T17:19:10.382Z,10.90
2017-09-26T17:21:37.980Z,9.83
2017-09-26T17:24:06.628Z,9.73
2017-09-26T17:26:34.250Z,23.97
2017-09-26T17:29:01.847Z,33.40
2017-09-26T17:31:29.522Z,11.90
2017-09-26T17:33:57.166Z,38.33
2017-09-26T17:36:24.835Z,16.50
2017-09-26T17:38:52.474Z,11.60
2017-09-26T17:41:20.099Z,12.23
2017-09-26T17:43:48.475Z,11.40
2017-09-26T17:46:17.241Z,12.07
2017-09-26T17:48:45.026Z,10.80
2017-09-26T17:51:14.420Z,11.57
2017-09-26T17:53:43.003Z,12.17
2017-09-26T17:56:10.682Z,11.93
2017-09-26T17:58:39.269Z,10.97
2017-09-26T18:01:06.927Z,12.50
2017-09-26T18:03:34.854Z,11.30
2017-09-26T18:06:02.449Z,13.53
2017-09-26T18:08:30.868Z,12.73
2017-09-26T18:10:58.594Z,13.00
2017-09-26T18:13:26.970Z,13.43
2017-09-26T18:15:55.377Z,13.13
2017-09-26T18:18:23.035Z,13.87
2017-09-26T18:20:51.154Z,13.17
2017-09-26T18:23:18.774Z,12.13
2017-09-26T18:25:46.409Z,12.70
2017-09-26T18:31:17.941Z,12.37
2017-09-26T18:33:46.412Z,12.70
2017-09-26T18:36:14.022Z,12.80
2017-09-26T18:38:41.691Z,11.40
2017-09-26T18:41:09.350Z,11.40
2017-09-26T18:43:37.313Z,14.67
2017-09-26T18:46:04.978Z,15.33
2017-09-26T18:48:32.589Z,14.70
2017-09-26T18:51:00.983Z,13.93
2017-09-26T18:53:29.439Z,13.40
2017-09-26T18:55:57.834Z,14.70
2017-09-26T18:58:26.949Z,14.57
2017-09-26T19:00:55.079Z,13.67
2017-09-26T19:03:22.748Z,20.90
2017-09-26T19:05:50.380Z,17.80
2017-09-26T19:08:18.010Z,19.40
2017-09-26T19:10:45.639Z,21.60
2017-09-26T19:13:14.040Z,22.80
2017-09-26T19:15:41.679Z,19.40
2017-09-26T19:18:10.569Z,21.40
2017-09-26T19:20:38.933Z,18.87
2017-09-26T19:23:06.592Z,17.37
2017-09-26T19:25:34.277Z,19.00
2017-09-26T19:28:02.690Z,18.27
2017-09-26T19:30:30.356Z,18.17
2017-09-26T19:32:57.945Z,19.00
2017-09-26T19:35:26.123Z,19.23
2017-09-26T19:37:53.750Z,17.00
2017-09-26T19:40:21.391Z,15.57
2017-09-26T19:42:49.082Z,14.97
2017-09-26T19:45:16.673Z,12.27
2017-09-26T19:47:44.389Z,14.57
2017-09-26T19:50:11.997Z,13.00
2017-09-26T19:52:40.772Z,13.70
2017-09-26T19:55:08.366Z,12.93
2017-09-26T19:57:36.750Z,13.80
2017-09-26T20:00:05.153Z,13.13
2017-09-26T20:02:32.734Z,14.83
2017-09-26T20:05:00.382Z,15.50
2017-09-26T20:07:28.009Z,14.87
2017-09-26T20:09:56.858Z,14.77
2017-09-26T20:12:24.504Z,13.23
2017-09-26T20:14:52.121Z,14.50
2017-09-26T20:17:19.842Z,16.10
2017-09-26T20:19:47.578Z,14.63
2017-09-26T20:22:15.207Z,15.83
2017-09-26T20:24:43.590Z,15.53
2017-09-26T20:27:11.517Z,15.23
2017-09-26T20:29:39.187Z,15.37
2017-09-26T20:32:06.772Z,14.53
2017-09-26T20:34:34.384Z,16.23
2017-09-26T20:37:02.026Z,15.13
2017-09-26T20:39:29.968Z,16.43
2017-09-26T20:41:57.590Z,14.43
2017-09-26T20:44:25.235Z,13.70
2017-09-26T20:46:52.884Z,14.57
2017-09-26T20:49:20.577Z,16.07
2017-09-26T20:51:48.199Z,15.27
2017-09-26T20:54:15.861Z,15.33
2017-09-26T20:56:43.777Z,16.80
2017-09-26T20:59:12.175Z,15.60
2017-09-26T21:01:40.558Z,16.50
2017-09-26T21:04:08.224Z,17.57
2017-09-26T21:06:35.923Z,17.40
2017-09-26T21:09:03.569Z,17.70
2017-09-26T21:11:31.182Z,17.10
2017-09-26T21:13:59.877Z,18.07
2017-09-26T21:16:28.253Z,16.40
2017-09-26T21:18:56.668Z,19.33
2017-09-26T21:21:24.336Z,18.90
2017-09-26T21:23:51.988Z,18.97
2017-09-26T21:26:19.616Z,19.90
2017-09-26T21:28:47.263Z,17.67
2017-09-26T21:31:15.215Z,19.03
2017-09-26T21:33:42.857Z,19.90
2017-09-26T21:36:10.490Z,20.80
2017-09-26T21:38:38.114Z,18.30
2017-09-26T21:41:05.703Z,19.43
2017-09-26T21:43:33.302Z,18.50
2017-09-26T21:46:00.883Z,18.63
2017-09-26T21:48:28.669Z,18.73
2017-09-26T21:50:57.062Z,20.10
2017-09-26T21:53:24.651Z,19.50
2017-09-26T21:55:52.328Z,17.53
2017-09-26T21:58:19.920Z,19.27
2017-09-26T22:00:47.859Z,20.20
2017-09-26T22:03:15.504Z,21.47
2017-09-26T22:05:43.380Z,19.10
2017-09-26T22:08:10.967Z,18.83
2017-09-26T22:10:39.334Z,21.00
2017-09-26T22:13:06.959Z,19.30
2017-09-26T22:15:34.537Z,20.33
2017-09-26T22:18:02.138Z,23.00
2017-09-26T22:20:30.486Z,19.33
2017-09-26T22:22:59.177Z,22.13
2017-09-26T22:25:26.790Z,21.50
2017-09-26T22:27:54.413Z,19.93
2017-09-26T22:30:22.020Z,21.23
2017-09-26T22:32:49.626Z,20.03
2017-09-26T22:35:17.430Z,20.23
2017-09-26T22:37:45.035Z,23.10
2017-09-26T22:40:13.003Z,22.20
2017-09-26T22:42:40.606Z,22.60
2017-09-26T22:45:08.951Z,22.13
2017-09-26T22:47:36.550Z,21.40
2017-09-26T22:50:04.172Z,21.10
2017-09-26T22:52:31.771Z,20.27
2017-09-26T22:54:59.374Z,20.73
2017-09-26T22:57:27.254Z,18.53
2017-09-26T22:59:54.846Z,21.80
2017-09-26T23:02:23.221Z,20.50
2017-09-26T23:04:51.642Z,20.00
2017-09-26T23:07:19.249Z,19.00
2017-09-26T23:09:47.914Z,20.33
2017-09-26T23:12:15.501Z,20.10
2017-09-26T23:14:43.842Z,21.03
2017-09-26T23:17:11.466Z,19.87
2017-09-26T23:19:39.066Z,19.30
2017-09-26T23:22:06.651Z,19.20
2017-09-26T23:24:34.240Z,19.30
2017-09-26T23:27:02.122Z,19.53
2017-09-26T23:29:29.711Z,17.50
2017-09-26T23:31:57.330Z,19.10
2017-09-26T23:34:24.934Z,19.90
2017-09-26T23:36:52.510Z,22.43
2017-09-26T23:39:20.111Z,20.83
2017-09-26T23:41:47.786Z,21.93
2017-09-26T23:44:15.681Z,21.87
2017-09-26T23:46:43.259Z,22.67
2017-09-26T23:49:10.842Z,20.23
2017-09-26T23:51:39.248Z,21.73
2017-09-26T23:54:06.853Z,21.30
2017-09-26T23:56:34.703Z,20.20
2017-09-26T23:59:02.378Z,21.20
